Latest Coastal Weather Observations for Cape Willoughby

IDS60701

Issued at 7:15 pm CST Friday 18 April 2014 (issued every 10 minutes, with the page automatically refreshed every 10 minutes)

About coastal observations | Map of coastal stations | Coastal observations for SA | Marine services | Other Formats
Station Details ID: 022803 Name: CAPE WILLOUGHBY Lat: -35.84 Lon: 138.13 Height: 55.0 m
Data from the previous 72 hours. | See also: Recent months at Cape Willoughby
Date/Time
CST
Temp

°C
Wind Pressure Rain
since 9am
mm
Weather Cloud Vis
km
Sea
Height
m
Swell
Dir
 
Speed
knots
Gust
knots
hPa Trend Height
m
Period
s
Dir
18/07:00pm 15.4 S 10 13 1023.2 - 0.0 - - - - - - -
18/06:30pm 15.4 S 11 14 1022.9 - 0.0 - - - - - - -
18/06:00pm 15.4 S 9 12 1022.9 - 0.0 - - - - - - -
18/05:30pm 15.4 S 12 15 1022.7 - 0.0 - - - - - - -
18/05:00pm 15.7 S 11 15 1022.8 - 0.0 - - - - - - -
18/04:30pm 15.9 S 12 15 1022.5 - 0.0 - - - - - - -
18/04:00pm 15.9 S 11 16 1022.6 - 0.0 - - - - - - -
18/03:30pm 16.0 S 13 17 1022.4 - 0.0 - - - - - - -
18/03:00pm 16.2 S 15 19 1022.2 - 0.0 - - - - - - -
18/02:30pm 16.2 S 15 18 1022.0 - 0.0 - - - - - - -
18/02:00pm 16.3 S 13 19 1022.4 - 0.0 - - - - - - -
18/01:30pm 16.2 S 14 18 1022.2 - 0.0 - - - - - - -
18/01:00pm 16.1 S 14 19 1022.3 - 0.0 - - - - - - -
18/12:30pm 16.1 S 15 20 1022.3 - 0.0 - - - - - - -
18/12:00pm 16.3 S 15 20 1022.5 - 0.0 - - - - - - -
18/11:30am 16.3 S 9 15 1022.6 - 0.0 - - - - - - -
18/11:00am 16.6 S 10 17 1022.8 - 0.0 - - - - - - -
18/10:30am 16.5 S 11 18 1022.4 - 0.0 - - - - - - -
18/10:00am 16.3 S 13 19 1022.2 - 0.0 - - - - - - -
18/09:30am 16.3 S 14 20 1021.9 - 0.0 - - - - - - -
18/09:00am 16.0 S 17 25 1021.4 - 0.4 - - - - - - -
18/08:30am 16.3 S 19 27 1021.1 - 0.4 - - - - - - -
18/08:00am 16.0 S 22 29 1020.5 - 0.4 - - - - - - -
18/07:30am 16.3 S 18 26 1019.9 - 0.4 - - - - - - -
18/07:00am 16.1 SSW 24 29 1019.3 - 0.4 - - - - - - -
18/06:30am 16.0 SSW 21 26 1019.2 - 0.4 - - - - - - -
18/06:00am 15.6 SSW 17 21 1019.1 - 0.4 Rain - - - - - -
18/05:30am 15.7 SW 17 21 1018.8 - 0.2 - - - - - - -
18/05:00am 15.7 W 15 22 1018.6 - 0.0 - - - - - - -
18/04:30am 16.1 WNW 13 16 1018.2 - 0.0 - - - - - - -
18/04:00am 15.7 WNW 13 17 1018.1 - 0.0 - - - - - - -
18/03:30am 15.3 WNW 14 17 1018.0 - 0.0 - - - - - - -
18/03:00am 14.9 WNW 14 17 1018.0 - 0.0 - - - - - - -
18/02:30am 15.1 WNW 10 13 1018.2 - 0.0 - - - - - - -
18/02:00am 15.6 W 12 16 1018.4 - 0.0 - - - - - - -
18/01:30am 16.0 W 12 18 1018.3 - 0.0 - - - - - - -
18/01:00am 16.6 W 12 17 1018.4 - 0.0 - - - - - - -
18/12:30am 17.1 W 12 16 1018.4 - 0.0 - - - - - - -
18/12:00am 17.3 WNW 13 17 1018.3 - 0.0 - - - - - - -
 
Date/Time
CST
Temp

°C
Wind Pressure Rain
since 9am
mm
Weather Cloud Vis
km
Sea
Height
m
Swell
Dir
 
Speed
knots
Gust
knots
hPa Trend Height
m
Period
s
Dir
17/11:30pm 17.0 NW 11 14 1018.2 - 0.0 - - - - - - -
17/11:00pm 17.5 NNW 11 12 1018.4 - 0.0 - - - - - - -
17/10:30pm 17.4 NNW 11 14 1018.6 - 0.0 - - - - - - -
17/10:00pm 17.2 NW 9 12 1019.0 - 0.0 - - - - - - -
17/09:30pm 17.2 NW 10 12 1019.4 - 0.0 - - - - - - -
17/09:00pm 16.9 NW 10 12 1019.2 - 0.0 - - - - - - -
17/08:30pm 17.1 NNW 8 10 1019.1 - 0.0 - - - - - - -
17/08:00pm 17.6 NNW 10 13 1019.0 - 0.0 - - - - - - -
17/07:30pm 17.7 NNW 10 12 1018.9 - 0.0 - - - - - - -
17/07:00pm 17.8 NNW 11 14 1018.7 - 0.0 - - - - - - -
17/06:30pm 17.9 NNW 13 17 1018.5 - 0.0 - - - - - - -
17/06:00pm 17.9 NNW 11 15 1018.4 - 0.0 - - - - - - -
17/05:30pm 18.2 NNW 13 16 1018.4 - 0.0 - - - - - - -
17/05:00pm 18.7 NNW 15 20 1018.2 - 0.0 - - - - - - -
17/04:30pm 19.4 NNW 13 17 1018.3 - 0.0 - - - - - - -
17/04:00pm 19.6 N 16 19 1018.3 - 0.0 - - - - - - -
17/03:30pm 20.2 N 15 18 1018.5 - 0.0 - - - - - - -
17/03:00pm 20.2 N 16 20 1018.7 - 0.0 - - - - - - -
17/02:30pm 20.2 N 15 17 1018.9 - 0.0 - - - - - - -
17/02:00pm 20.6 N 16 19 1019.1 - 0.0 - - - - - - -
17/01:30pm 20.7 N 16 19 1019.3 - 0.0 - - - - - - -
17/01:00pm 20.6 N 15 18 1019.7 - 0.0 - - - - - - -
17/12:30pm 20.6 N 17 20 1020.1 - 0.0 - - - - - - -
17/12:00pm 19.3 NNW 16 18 1020.7 - 0.0 - - - - - - -
17/11:30am 20.5 NNW 9 15 1021.2 - 0.0 - - - - - - -
17/11:00am 20.2 N 11 13 1021.5 - 0.0 - - - - - - -
17/10:30am 19.0 NNE 6 10 1021.4 - 0.0 - - - - - - -
17/10:00am 17.8 E 3 4 1021.6 - 0.0 - - - - - - -
17/09:30am 17.6 E 2 3 1021.4 - 0.0 - - - - - - -
17/09:00am 17.4 WSW 1 2 1021.3 - 0.0 - - - - - - -
17/08:30am 16.5 WSW 1 2 1021.1 - 0.0 - - - - - - -
17/08:00am 16.0 WSW 1 2 1021.0 - 0.0 - - - - - - -
17/07:30am 15.4 WSW 2 2 1020.5 - 0.0 - - - - - - -
17/07:00am 15.0 WSW 3 4 1020.2 - 0.0 - - - - - - -
17/06:30am 14.4 WSW 5 5 1020.2 - 0.0 - - - - - - -
17/06:00am 14.5 WSW 5 6 1020.0 - 0.0 - - - - - - -
17/05:30am 14.4 WSW 6 7 1019.9 - 0.0 - - - - - - -
17/05:00am 14.3 W 6 8 1020.1 - 0.0 - - - - - - -
17/04:30am 14.2 WNW 7 7 1020.0 - 0.0 - - - - - - -
17/04:00am 14.4 WNW 6 7 1019.6 - 0.0 - - - - - - -
17/03:30am 15.2 WNW 6 7 1019.4 - 0.0 - - - - - - -
17/03:00am 15.4 WSW 4 5 1019.4 - 0.0 - - - - - - -
17/02:30am 16.3 WSW 4 5 1019.7 - 0.0 - - - - - - -
17/02:00am 16.4 W 6 9 1020.0 - 0.0 - - - - - - -
17/01:30am 16.5 W 6 9 1020.0 - 0.0 - - - - - - -
17/01:00am 16.3 W 7 10 1020.0 - 0.0 - - - - - - -
17/12:30am 16.0 WNW 6 8 1019.9 - 0.0 - - - - - - -
17/12:00am 16.5 NW 7 8 1019.9 - 0.0 - - - - - - -
 
Date/Time
CST
Temp

°C
Wind Pressure Rain
since 9am
mm
Weather Cloud Vis
km
Sea
Height
m
Swell
Dir
 
Speed
knots
Gust
knots
hPa Trend Height
m
Period
s
Dir
16/11:30pm 16.6 NNW 4 5 1020.1 - 0.0 - - - - - - -
16/11:00pm 16.2 NNW 6 7 1020.3 - 0.0 - - - - - - -
16/10:30pm 15.9 NNW 6 7 1020.1 - 0.0 - - - - - - -
16/10:00pm 15.7 NNW 4 5 1020.3 - 0.0 - - - - - - -
16/09:30pm 16.4 W 2 3 1020.2 - 0.0 - - - - - - -
16/09:00pm 16.8 S 2 3 1020.0 - 0.0 - - - - - - -
16/08:30pm 16.9 SSW 4 4 1019.7 - 0.0 - - - - - - -
16/08:00pm 16.9 SSW 5 6 1019.8 - 0.0 - - - - - - -
16/07:30pm 17.0 SSW 3 4 1019.8 - 0.0 - - - - - - -
16/07:00pm 17.1 S 1 2 1019.5 - 0.0 - - - - - - -
16/06:30pm 17.5 SSW 4 6 1019.2 - 0.0 - - - - - - -
16/06:00pm 17.7 SSW 7 8 1019.0 - 0.0 - - - - - - -
16/05:30pm 18.2 NNW 9 11 1018.9 - 0.0 - - - - - - -
16/05:00pm 18.9 NNW 12 15 1018.4 - 0.0 - - - - - - -
16/04:30pm 19.1 NNW 13 16 1018.2 - 0.0 - - - - - - -
16/04:00pm 19.6 NNW 14 16 1018.5 - 0.0 - - - - - - -
16/03:30pm 20.2 NNW 14 17 1018.4 - 0.0 - - - - - - -
16/03:00pm 20.9 N 11 13 1018.5 - 0.0 - - - - - - -
16/02:30pm 20.0 N 14 17 1018.4 - 0.0 - - - - - - -
16/02:00pm 19.6 N 16 18 1018.4 - 0.0 - - - - - - -
16/01:30pm 20.3 N 16 20 1018.7 - 0.0 - - - - - - -
16/01:00pm 21.0 N 15 18 1019.0 - 0.0 - - - - - - -
16/12:30pm 20.7 N 16 19 1019.0 - 0.0 - - - - - - -
16/12:00pm 20.4 N 16 21 1019.5 - 0.0 - - - - - - -
16/11:30am 21.3 N 15 20 1019.8 - 0.0 - - - - - - -
16/11:00am 20.1 N 16 19 1019.8 - 0.0 - - - - - - -
16/10:30am 19.2 N 15 20 1020.0 - 0.0 - - - - - - -
16/10:00am 19.6 NNW 14 18 1020.4 - 0.0 - - - - - - -
16/09:30am 19.5 NNW 10 13 1020.7 - 0.0 - - - - - - -
16/09:00am 18.6 N 8 10 1020.5 - 0.0 - - - - - - -
16/08:30am 16.9 N 5 6 1020.5 - 0.0 - - - - - - -
16/08:00am 16.0 N 3 5 1020.4 - 0.0 - - - - - - -
16/07:30am 15.8 N 6 7 1020.0 - 0.0 - - - - - - -
16/07:00am 15.3 N 6 8 1019.8 - 0.0 - - - - - - -
16/06:30am 15.2 NNE 6 8 1019.8 - 0.0 - - - - - - -
16/06:00am 15.1 NNE 6 8 1019.8 - 0.0 - - - - - - -
16/05:30am 14.9 NNE 3 5 1020.2 - 0.0 - - - - - - -
16/05:00am 15.0 NNE 2 3 1020.7 - 0.0 - - - - - - -
16/04:30am 15.1 NE 5 6 1020.1 - 0.0 - - - - - - -
16/04:00am 15.4 NE 5 6 1020.3 - 0.0 - - - - - - -
16/03:30am 15.5 NE 7 8 1020.1 - 0.0 - - - - - - -
16/03:00am 15.6 ENE 7 9 1020.2 - 0.0 - - - - - - -
16/02:30am 15.5 ENE 7 9 1020.4 - 0.0 - - - - - - -
16/02:00am 15.6 ENE 6 7 1021.4 - 0.0 - - - - - - -
16/01:30am 15.7 E 6 8 1021.7 - 0.0 - - - - - - -
16/01:00am 15.4 E 5 7 1022.1 - 0.0 - - - - - - -
16/12:30am 15.6 E 5 6 1022.3 - 0.0 - - - - - - -
16/12:00am 15.8 E 7 9 1022.2 - 0.0 - - - - - - -
 
Date/Time
CST
Temp

°C
Wind Pressure Rain
since 9am
mm
Weather Cloud Vis
km
Sea
Height
m
Swell
Dir
 
Speed
knots
Gust
knots
hPa Trend Height
m
Period
s
Dir
15/11:30pm 15.7 E 8 10 1022.2 - 0.0 - - - - - - -
15/11:00pm 15.7 E 8 10 1022.3 - 0.0 - - - - - - -
15/10:30pm 15.9 E 9 11 1022.3 - 0.0 - - - - - - -
15/10:00pm 15.9 ESE 8 10 1022.7 - 0.0 - - - - - - -
15/09:30pm 15.8 ESE 10 12 1022.6 - 0.0 - - - - - - -
15/09:00pm 15.8 SE 9 11 1022.8 - 0.0 - - - - - - -
15/08:30pm 15.8 SSE 9 10 1022.9 - 0.0 - - - - - - -
15/08:00pm 15.9 SSE 9 11 1022.8 - 0.0 - - - - - - -
15/07:30pm 15.8 SSE 10 12 1022.7 - 0.0 - - - - - - -

Other Formats:

Comma delimited format used in spreadsheet applications
http://www.bom.gov.au/fwo/IDS60701/IDS60701.94822.axf

JavaScript Object Notation format (JSON) in row-major order
http://www.bom.gov.au/fwo/IDS60701/IDS60701.94822.json